createdAt,value
2022-12-11T00:01:19.969Z,16.90
2022-12-11T00:03:48.309Z,14.80
2022-12-11T00:06:18.197Z,14.60
2022-12-11T00:08:45.464Z,14.60
2022-12-11T00:11:16.612Z,13.60
2022-12-11T00:13:44.298Z,14.90
2022-12-11T00:16:12.098Z,12.20
2022-12-11T00:18:39.238Z,15.50
2022-12-11T00:21:08.974Z,14.30
2022-12-11T00:23:36.414Z,14.20
2022-12-11T00:26:13.853Z,12.60
2022-12-11T00:28:41.996Z,13.20
2022-12-11T00:31:13.013Z,18.20
2022-12-11T00:33:42.955Z,19.20
2022-12-11T00:36:19.500Z,23.30
2022-12-11T00:38:47.009Z,22.10
2022-12-11T00:41:14.113Z,24.90
2022-12-11T00:43:41.422Z,31.10
2022-12-11T00:46:08.605Z,23.60
2022-12-11T00:48:36.098Z,26.70
2022-12-11T00:51:03.402Z,16.20
2022-12-11T00:53:31.093Z,13.10
2022-12-11T00:55:58.165Z,13.20
2022-12-11T00:58:25.288Z,12.30
2022-12-11T01:00:52.700Z,11.90
2022-12-11T01:03:19.846Z,11.90
2022-12-11T01:05:56.010Z,19.30
2022-12-11T01:08:23.154Z,16.50
2022-12-11T01:10:51.254Z,12.70
2022-12-11T01:13:18.357Z,11.50
2022-12-11T01:15:46.068Z,13.00
2022-12-11T01:18:15.705Z,13.10
2022-12-11T01:20:43.374Z,11.00
2022-12-11T01:23:13.302Z,11.10
2022-12-11T01:25:41.532Z,13.90
2022-12-11T01:28:09.013Z,13.30
2022-12-11T01:30:37.082Z,16.20
2022-12-11T01:33:04.288Z,14.20
2022-12-11T01:35:31.337Z,13.20
2022-12-11T01:37:59.417Z,12.40
2022-12-11T01:40:26.687Z,11.70
2022-12-11T01:42:53.760Z,14.20
2022-12-11T01:45:27.163Z,12.50
2022-12-11T01:47:59.917Z,13.20
2022-12-11T01:50:28.219Z,14.00
2022-12-11T01:52:55.394Z,11.30
2022-12-11T01:55:22.544Z,10.70
2022-12-11T01:57:52.817Z,10.00
2022-12-11T02:00:20.994Z,11.20
2022-12-11T02:02:48.151Z,13.20
2022-12-11T02:05:15.368Z,12.00
2022-12-11T02:07:48.072Z,15.90
2022-12-11T02:10:15.589Z,17.70
2022-12-11T02:12:53.407Z,12.80
2022-12-11T02:15:47.929Z,13.90
2022-12-11T02:18:34.845Z,13.70
2022-12-11T02:21:24.597Z,13.40
2022-12-11T02:24:25.566Z,16.00
2022-12-11T02:27:21.805Z,13.50
2022-12-11T02:30:10.099Z,12.90
2022-12-11T02:32:40.369Z,11.40
2022-12-11T02:35:13.522Z,10.40
2022-12-11T02:37:44.731Z,11.30
2022-12-11T02:40:14.624Z,18.30
2022-12-11T02:42:44.207Z,14.20
2022-12-11T02:45:12.939Z,14.00
2022-12-11T02:47:42.232Z,13.10
2022-12-11T02:50:13.951Z,13.10
2022-12-11T02:52:42.924Z,15.30
2022-12-11T02:55:13.161Z,13.00
2022-12-11T02:57:48.101Z,13.30
2022-12-11T03:00:16.816Z,12.50
2022-12-11T03:02:44.461Z,14.50
2022-12-11T03:05:13.427Z,12.60
2022-12-11T03:07:42.826Z,12.70
2022-12-11T03:10:14.762Z,11.10
2022-12-11T03:12:48.111Z,10.60
2022-12-11T03:15:22.013Z,10.50
2022-12-11T03:17:49.111Z,11.30
2022-12-11T03:20:43.705Z,12.00
2022-12-11T03:23:16.872Z,11.50
2022-12-11T03:25:52.317Z,10.60
2022-12-11T03:28:50.111Z,15.00
2022-12-11T03:31:26.279Z,12.80
2022-12-11T03:33:56.478Z,13.20
2022-12-11T03:36:31.973Z,16.60
2022-12-11T03:39:03.289Z,13.20
2022-12-11T03:41:32.924Z,13.50
2022-12-11T03:44:00.533Z,13.00
2022-12-11T03:46:34.146Z,13.90
2022-12-11T03:49:05.792Z,13.60
2022-12-11T03:51:35.538Z,15.20
2022-12-11T03:54:03.550Z,14.50
2022-12-11T03:56:34.515Z,14.70
2022-12-11T03:59:01.646Z,19.30
2022-12-11T04:01:28.814Z,14.80
2022-12-11T04:03:56.008Z,14.00
2022-12-11T04:06:23.192Z,13.20
2022-12-11T04:08:50.268Z,14.40
2022-12-11T04:11:35.591Z,14.00
2022-12-11T04:14:27.550Z,15.10
2022-12-11T04:16:55.357Z,14.40
2022-12-11T04:19:41.769Z,14.60
2022-12-11T04:22:32.962Z,14.40
2022-12-11T04:25:01.175Z,14.40
2022-12-11T04:27:47.003Z,15.10
2022-12-11T04:30:17.321Z,15.20
2022-12-11T04:32:44.727Z,10.30
2022-12-11T04:35:12.577Z,12.30
2022-12-11T04:37:40.054Z,13.20
2022-12-11T04:40:10.428Z,15.40
2022-12-11T04:42:37.682Z,15.40
2022-12-11T04:45:06.040Z,14.20
2022-12-11T04:47:33.061Z,20.80
2022-12-11T04:50:00.210Z,15.40
2022-12-11T04:52:27.336Z,15.80
2022-12-11T04:54:54.406Z,14.50
2022-12-11T04:57:21.764Z,15.50
2022-12-11T04:59:49.125Z,15.80
2022-12-11T05:02:17.215Z,16.60
2022-12-11T05:04:44.470Z,15.60
2022-12-11T05:07:11.620Z,15.30
2022-12-11T05:09:38.659Z,16.60
2022-12-11T05:12:05.848Z,13.30
2022-12-11T05:14:33.558Z,13.00
2022-12-11T05:17:00.709Z,15.80
2022-12-11T05:19:28.064Z,13.90
2022-12-11T05:21:55.086Z,16.20
2022-12-11T05:24:22.186Z,14.50
2022-12-11T05:26:49.259Z,13.90
2022-12-11T05:29:16.358Z,13.70
2022-12-11T05:31:43.907Z,14.60
2022-12-11T05:34:11.047Z,13.80
2022-12-11T05:36:38.091Z,14.50
2022-12-11T05:39:05.370Z,18.90
2022-12-11T05:41:34.007Z,19.30
2022-12-11T05:44:01.523Z,18.30
2022-12-11T05:46:30.680Z,16.90
2022-12-11T05:49:00.615Z,17.30
2022-12-11T05:51:28.982Z,17.10
2022-12-11T05:53:57.392Z,38.40
2022-12-11T05:56:27.480Z,41.30
2022-12-11T05:58:55.683Z,46.30
2022-12-11T06:01:26.185Z,56.50
2022-12-11T06:03:54.775Z,71.20
2022-12-11T06:06:22.339Z,64.20
2022-12-11T06:08:54.115Z,62.80
2022-12-11T06:11:24.173Z,76.00
2022-12-11T06:13:52.686Z,80.00
2022-12-11T06:16:20.670Z,53.90
2022-12-11T06:18:48.168Z,49.90
2022-12-11T06:21:16.932Z,47.40
2022-12-11T06:23:46.127Z,49.00
2022-12-11T06:26:14.381Z,37.50
2022-12-11T06:28:41.659Z,52.90
2022-12-11T06:31:08.986Z,47.80
2022-12-11T06:33:36.447Z,53.00
2022-12-11T06:36:05.595Z,55.40
2022-12-11T06:38:33.158Z,54.00
2022-12-11T06:41:02.638Z,74.40
2022-12-11T06:43:29.761Z,81.50
2022-12-11T06:46:02.112Z,62.30
2022-12-11T06:48:31.111Z,50.80
2022-12-11T06:50:58.150Z,28.70
2022-12-11T06:53:25.198Z,36.70
2022-12-11T06:55:52.292Z,48.60
2022-12-11T06:58:20.394Z,106.10
2022-12-11T07:00:47.572Z,27.60
2022-12-11T07:03:14.825Z,24.60
2022-12-11T07:05:41.923Z,49.10
2022-12-11T07:08:09.051Z,70.80
2022-12-11T07:10:36.175Z,57.80
2022-12-11T07:13:03.324Z,41.90
2022-12-11T07:15:30.397Z,39.70
2022-12-11T07:17:57.446Z,46.30
2022-12-11T07:20:24.579Z,39.60
2022-12-11T07:22:51.671Z,39.00
2022-12-11T07:25:18.692Z,35.80
2022-12-11T07:27:45.821Z,43.00
2022-12-11T07:30:13.454Z,29.10
2022-12-11T07:32:40.580Z,19.10
2022-12-11T07:35:08.435Z,17.70
2022-12-11T07:37:35.622Z,31.70
2022-12-11T07:40:02.647Z,49.50
2022-12-11T07:42:29.642Z,41.90
2022-12-11T07:44:56.742Z,40.80
2022-12-11T08:11:26.980Z,22.50
2022-12-11T08:13:54.354Z,30.40
2022-12-11T08:16:22.354Z,23.80
2022-12-11T08:18:50.421Z,16.30
2022-12-11T08:21:23.256Z,40.10
2022-12-11T08:23:52.171Z,26.20
2022-12-11T08:26:22.496Z,23.90
2022-12-11T08:28:49.546Z,22.00
2022-12-11T08:31:17.919Z,16.10
2022-12-11T08:33:46.293Z,15.90
2022-12-11T08:36:16.273Z,14.70
2022-12-11T08:38:43.497Z,14.60
2022-12-11T08:41:13.720Z,13.80
2022-12-11T08:43:41.104Z,16.40
2022-12-11T08:46:08.996Z,13.90
2022-12-11T08:48:38.194Z,20.40
2022-12-11T08:51:09.287Z,33.70
2022-12-11T08:53:36.640Z,26.80
2022-12-11T08:56:08.859Z,30.70
2022-12-11T08:58:39.325Z,27.30
2022-12-11T09:01:09.340Z,22.30
2022-12-11T09:03:37.863Z,18.80
2022-12-11T09:06:07.372Z,18.70
2022-12-11T09:08:35.035Z,18.10
2022-12-11T09:11:12.707Z,18.20
2022-12-11T09:13:41.264Z,13.60
2022-12-11T09:16:11.320Z,12.60
2022-12-11T09:18:39.636Z,13.30
2022-12-11T09:21:10.015Z,12.10
2022-12-11T09:23:37.699Z,17.70
2022-12-11T09:26:11.301Z,12.20
2022-12-11T09:28:45.800Z,12.40
2022-12-11T09:31:18.831Z,12.80
2022-12-11T09:33:46.787Z,17.00
2022-12-11T09:36:14.267Z,15.70
2022-12-11T09:38:44.160Z,22.60
2022-12-11T09:41:59.797Z,18.50
2022-12-11T09:44:38.849Z,16.50
2022-12-11T09:47:46.013Z,19.80
2022-12-11T09:50:22.607Z,26.70
2022-12-11T09:53:18.993Z,24.10
2022-12-11T09:58:25.917Z,19.90
2022-12-11T10:01:19.050Z,38.40
2022-12-11T10:04:01.920Z,25.90
2022-12-11T10:06:41.999Z,14.40
2022-12-11T10:09:56.741Z,16.30
2022-12-11T10:12:41.352Z,41.00
2022-12-11T10:15:50.308Z,22.90
2022-12-11T10:18:23.168Z,107.10
2022-12-11T10:20:52.867Z,71.90
2022-12-11T10:23:35.699Z,46.90
2022-12-11T10:26:17.850Z,46.10
2022-12-11T10:28:45.482Z,25.10
2022-12-11T10:31:51.392Z,21.90
2022-12-11T10:34:21.283Z,23.30
2022-12-11T10:36:48.540Z,25.60
2022-12-11T10:39:20.344Z,22.50
2022-12-11T10:41:50.748Z,25.00
2022-12-11T10:44:20.741Z,21.00
2022-12-11T10:47:01.616Z,19.90
2022-12-11T10:49:31.326Z,18.70
2022-12-11T10:52:01.652Z,16.80
2022-12-11T10:54:31.704Z,15.80
2022-12-11T10:57:00.841Z,14.90
2022-12-11T10:59:34.759Z,14.00
2022-12-11T11:02:03.201Z,15.20
2022-12-11T11:04:35.756Z,15.20
2022-12-11T11:07:24.844Z,13.90
2022-12-11T11:10:14.292Z,14.10
2022-12-11T11:12:44.362Z,27.40
2022-12-11T11:15:18.040Z,20.60
2022-12-11T11:17:54.994Z,15.50
2022-12-11T11:20:26.970Z,15.50
2022-12-11T11:22:56.986Z,18.40
2022-12-11T11:25:29.127Z,18.80
2022-12-11T11:28:02.631Z,18.80
2022-12-11T11:30:31.308Z,20.10
2022-12-11T11:33:02.375Z,20.40
2022-12-11T11:35:31.674Z,25.20
2022-12-11T11:37:58.800Z,26.60
2022-12-11T11:40:32.068Z,20.70
2022-12-11T11:43:05.365Z,23.30
2022-12-11T11:45:41.653Z,39.80
2022-12-11T11:48:34.334Z,37.50
2022-12-11T11:51:12.895Z,25.70
2022-12-11T11:53:41.816Z,29.00
2022-12-11T11:56:21.713Z,19.80
2022-12-11T11:59:07.448Z,32.80
2022-12-11T12:01:34.881Z,25.20
2022-12-11T12:04:04.028Z,27.90
2022-12-11T12:06:50.788Z,26.90
2022-12-11T12:09:31.421Z,31.90
2022-12-11T12:12:06.606Z,21.10
2022-12-11T12:15:18.443Z,17.60
2022-12-11T12:17:56.076Z,18.40
2022-12-11T12:20:41.975Z,15.20
2022-12-11T12:23:15.172Z,106.00
2022-12-11T12:26:05.565Z,39.50
2022-12-11T12:28:52.993Z,32.60
2022-12-11T12:31:51.167Z,25.90
2022-12-11T12:34:42.490Z,19.80
2022-12-11T12:37:31.501Z,24.70
2022-12-11T12:40:20.694Z,20.20
2022-12-11T12:43:11.036Z,21.70
2022-12-11T12:46:01.495Z,23.90
2022-12-11T12:48:29.174Z,21.10
2022-12-11T12:50:57.067Z,20.50
2022-12-11T12:53:28.622Z,32.60
2022-12-11T12:55:56.718Z,38.20
2022-12-11T12:58:35.930Z,27.00
2022-12-11T13:01:12.544Z,26.90
2022-12-11T13:04:54.516Z,81.50
2022-12-11T13:07:27.346Z,29.20
2022-12-11T13:10:07.236Z,21.40
2022-12-11T13:12:46.040Z,24.40
2022-12-11T13:15:27.265Z,26.10
2022-12-11T13:17:55.081Z,21.10
2022-12-11T13:20:24.612Z,21.40
2022-12-11T13:23:07.075Z,18.20
2022-12-11T13:25:50.685Z,19.10
2022-12-11T13:28:41.152Z,20.30
2022-12-11T13:31:37.151Z,18.30
2022-12-11T13:34:18.595Z,18.70
2022-12-11T13:36:54.397Z,31.10
2022-12-11T13:39:25.337Z,33.30
2022-12-11T13:41:56.787Z,33.00
2022-12-11T13:44:30.804Z,25.80
2022-12-11T13:47:00.548Z,31.20
2022-12-11T13:49:36.942Z,34.10
2022-12-11T13:52:05.855Z,23.00
2022-12-11T13:54:36.553Z,21.10
2022-12-11T13:57:06.628Z,32.20
2022-12-11T13:59:39.032Z,24.10
2022-12-11T14:02:21.348Z,21.10
2022-12-11T14:04:51.884Z,21.80
2022-12-11T14:07:25.358Z,26.90
2022-12-11T14:09:57.013Z,26.10
2022-12-11T14:12:24.337Z,26.30
2022-12-11T14:14:55.098Z,20.30
2022-12-11T14:17:26.579Z,29.70
2022-12-11T14:19:54.881Z,17.90
2022-12-11T14:22:25.647Z,18.30
2022-12-11T14:24:59.144Z,18.70
2022-12-11T14:27:27.802Z,15.30
2022-12-11T14:29:55.184Z,13.50
2022-12-11T14:32:33.061Z,15.50
2022-12-11T14:35:02.696Z,17.70
2022-12-11T14:37:31.254Z,15.40
2022-12-11T14:40:09.928Z,19.40
2022-12-11T14:42:43.813Z,23.20
2022-12-11T14:45:34.997Z,22.20
2022-12-11T14:48:10.109Z,39.70
2022-12-11T14:50:43.997Z,58.00
2022-12-11T14:53:17.596Z,37.80
2022-12-11T14:55:48.148Z,20.20
2022-12-11T14:58:23.902Z,19.70
2022-12-11T15:01:25.317Z,17.00
2022-12-11T15:04:07.361Z,14.70
2022-12-11T15:06:42.712Z,13.60
2022-12-11T15:09:35.784Z,31.10
2022-12-11T15:12:18.650Z,25.40
2022-12-11T15:14:51.690Z,36.50
2022-12-11T15:17:20.145Z,36.90
2022-12-11T15:19:51.781Z,25.80
2022-12-11T15:22:21.237Z,24.10
2022-12-11T15:24:52.302Z,22.10
2022-12-11T15:27:34.096Z,19.20
2022-12-11T15:30:01.754Z,17.60
2022-12-11T15:32:31.318Z,12.70
2022-12-11T15:35:00.119Z,18.90
2022-12-11T15:37:33.983Z,35.90
2022-12-11T15:40:04.949Z,19.80
2022-12-11T15:42:35.708Z,41.60
2022-12-11T15:45:06.885Z,25.30
2022-12-11T15:47:34.241Z,14.50
2022-12-11T15:50:14.084Z,14.50
2022-12-11T15:52:41.463Z,18.80
2022-12-11T15:55:09.438Z,14.30
2022-12-11T15:57:37.224Z,16.80
2022-12-11T16:00:06.576Z,20.60
2022-12-11T16:02:34.216Z,19.30
2022-12-11T16:05:01.493Z,15.80
2022-12-11T16:07:28.592Z,17.20
2022-12-11T16:09:55.690Z,15.40
2022-12-11T16:12:22.867Z,14.10
2022-12-11T16:14:50.300Z,27.40
2022-12-11T16:17:17.578Z,35.50
2022-12-11T16:19:45.266Z,32.40
2022-12-11T16:22:15.591Z,31.60
2022-12-11T16:24:43.227Z,37.80
2022-12-11T16:27:10.504Z,17.60
2022-12-11T16:29:40.043Z,21.10
2022-12-11T16:32:08.519Z,13.30
2022-12-11T16:34:37.339Z,15.10
2022-12-11T16:37:08.810Z,25.30
2022-12-11T16:39:37.730Z,18.90
2022-12-11T16:42:06.389Z,25.70
2022-12-11T16:44:33.717Z,27.00
2022-12-11T16:47:00.868Z,24.00
2022-12-11T16:49:28.148Z,21.10
2022-12-11T16:51:55.323Z,17.80
2022-12-11T16:54:22.398Z,23.70
2022-12-11T16:56:49.574Z,34.80
2022-12-11T16:59:16.853Z,40.50
2022-12-11T17:01:45.036Z,45.10
2022-12-11T17:04:12.357Z,57.50
2022-12-11T17:06:39.506Z,76.90
2022-12-11T17:09:07.169Z,59.10
2022-12-11T17:11:34.562Z,64.60
2022-12-11T17:14:01.727Z,55.00
2022-12-11T17:16:34.050Z,53.70
2022-12-11T17:19:03.143Z,41.10
2022-12-11T17:21:30.274Z,35.90
2022-12-11T17:23:57.421Z,23.00
2022-12-11T17:26:25.468Z,18.60
2022-12-11T17:28:52.649Z,15.20
2022-12-11T17:31:20.113Z,15.80
2022-12-11T17:33:47.482Z,17.10
2022-12-11T17:36:20.187Z,22.00
2022-12-11T17:38:48.055Z,17.30
2022-12-11T17:41:20.449Z,24.60
2022-12-11T17:43:52.826Z,17.50
2022-12-11T17:46:20.850Z,16.60
2022-12-11T17:48:48.688Z,20.60
2022-12-11T17:51:22.071Z,22.10
2022-12-11T17:53:49.877Z,21.10
2022-12-11T17:56:17.575Z,20.80
2022-12-11T17:58:44.691Z,19.00
2022-12-11T18:01:13.333Z,19.10
2022-12-11T18:03:41.067Z,17.00
2022-12-11T18:06:13.515Z,18.80
2022-12-11T18:08:41.766Z,20.00
2022-12-11T18:11:11.981Z,22.30
2022-12-11T18:13:39.573Z,20.70
2022-12-11T18:16:10.934Z,20.30
2022-12-11T18:18:38.844Z,17.00
2022-12-11T18:21:07.171Z,29.80
2022-12-11T18:23:34.835Z,31.80
2022-12-11T18:26:02.135Z,41.80
2022-12-11T18:28:31.871Z,46.80
2022-12-11T18:31:01.335Z,61.80
2022-12-11T18:33:30.117Z,50.50
2022-12-11T18:35:57.291Z,37.40
2022-12-11T18:38:24.393Z,34.00
2022-12-11T18:40:51.599Z,26.40
2022-12-11T18:43:18.743Z,22.10
2022-12-11T18:45:46.124Z,23.20
2022-12-11T18:48:14.554Z,28.50
2022-12-11T18:50:48.849Z,22.10
2022-12-11T18:53:17.639Z,19.90
2022-12-11T18:55:47.936Z,16.50
2022-12-11T18:58:17.677Z,18.40
2022-12-11T19:00:46.214Z,19.00
2022-12-11T19:03:14.252Z,18.30
2022-12-11T19:05:43.916Z,20.00
2022-12-11T19:08:14.045Z,19.80
2022-12-11T19:10:43.588Z,29.90
2022-12-11T19:13:11.617Z,25.10
2022-12-11T19:15:42.964Z,27.70
2022-12-11T19:18:11.357Z,22.60
2022-12-11T19:20:49.273Z,24.10
2022-12-11T19:23:17.184Z,31.30
2022-12-11T19:25:46.590Z,24.50
2022-12-11T19:28:14.787Z,21.50
2022-12-11T19:30:47.089Z,39.20
2022-12-11T19:33:14.592Z,34.80
2022-12-11T19:35:42.127Z,51.60
2022-12-11T19:38:09.329Z,59.20
2022-12-11T19:40:41.062Z,37.40
2022-12-11T19:43:08.301Z,24.90
2022-12-11T19:45:35.570Z,27.00
2022-12-11T19:48:03.102Z,44.00
2022-12-11T19:50:30.350Z,27.50
2022-12-11T19:52:57.454Z,25.70
2022-12-11T19:55:24.556Z,51.00
2022-12-11T19:57:51.643Z,22.00
2022-12-11T20:00:19.681Z,26.30
2022-12-11T20:02:46.724Z,39.20
2022-12-11T20:05:14.195Z,40.50
2022-12-11T20:07:41.539Z,75.10
2022-12-11T20:10:09.069Z,16.90
2022-12-11T20:12:36.369Z,14.90
2022-12-11T20:15:06.192Z,14.90
2022-12-11T20:17:33.565Z,17.70
2022-12-11T20:20:00.867Z,25.70
2022-12-11T20:22:27.978Z,21.20
2022-12-11T20:24:55.195Z,14.80
2022-12-11T20:27:22.582Z,21.20
2022-12-11T20:29:49.734Z,25.60
2022-12-11T20:32:16.900Z,21.40
2022-12-11T20:34:44.042Z,19.10
2022-12-11T20:37:11.116Z,19.00
2022-12-11T20:39:38.220Z,17.40
2022-12-11T20:42:05.386Z,13.80
2022-12-11T20:44:32.633Z,12.30
2022-12-11T20:46:59.884Z,12.70
2022-12-11T20:49:27.012Z,14.30
2022-12-11T20:51:55.802Z,14.50
2022-12-11T20:54:22.905Z,22.90
2022-12-11T20:56:50.282Z,39.30
2022-12-11T20:59:17.535Z,37.50
2022-12-11T21:01:44.725Z,55.90
2022-12-11T21:04:11.963Z,67.40
2022-12-11T21:06:40.707Z,51.00
2022-12-11T21:09:12.409Z,56.60
2022-12-11T21:11:39.737Z,60.60
2022-12-11T21:14:06.990Z,46.50
2022-12-11T21:16:36.898Z,68.70
2022-12-11T21:19:05.434Z,43.00
2022-12-11T21:21:34.045Z,32.70
2022-12-11T21:24:01.174Z,15.90
2022-12-11T21:26:28.332Z,13.70
2022-12-11T21:28:55.473Z,17.10
2022-12-11T21:31:22.668Z,13.00
2022-12-11T21:33:49.874Z,14.10
2022-12-11T21:36:17.202Z,13.10
2022-12-11T21:38:45.210Z,10.60
2022-12-11T21:41:15.746Z,12.10
2022-12-11T21:44:14.664Z,13.90
2022-12-11T21:46:31.376Z,14.80
2022-12-11T21:49:00.025Z,14.20
2022-12-11T21:51:34.320Z,14.00
2022-12-11T21:54:04.071Z,12.20
2022-12-11T21:56:32.082Z,14.20
2022-12-11T21:58:59.173Z,15.00
2022-12-11T22:01:30.738Z,16.70
2022-12-11T22:03:58.597Z,16.00
2022-12-11T22:06:25.782Z,14.10
2022-12-11T22:08:53.258Z,13.00
2022-12-11T22:11:22.879Z,16.80
2022-12-11T22:13:50.019Z,20.00
2022-12-11T22:16:17.175Z,18.40
2022-12-11T22:18:44.603Z,16.30
2022-12-11T22:21:11.818Z,15.60
2022-12-11T22:23:39.604Z,16.40
2022-12-11T22:26:07.356Z,19.00
2022-12-11T22:28:34.812Z,16.60
2022-12-11T22:31:01.969Z,16.80
2022-12-11T22:33:29.239Z,43.10
2022-12-11T22:36:57.790Z,30.00
2022-12-11T22:39:25.246Z,72.80
2022-12-11T22:41:52.693Z,32.70
2022-12-11T22:44:21.967Z,21.40
2022-12-11T22:46:50.566Z,15.30
2022-12-11T22:49:19.513Z,14.80
2022-12-11T22:51:46.705Z,13.10
2022-12-11T22:54:13.783Z,12.30
2022-12-11T22:56:41.021Z,11.40
2022-12-11T22:59:08.075Z,12.90
2022-12-11T23:01:35.403Z,9.40
2022-12-11T23:04:02.588Z,11.80
2022-12-11T23:06:29.682Z,11.20
2022-12-11T23:09:01.313Z,10.20
2022-12-11T23:11:36.329Z,9.80
2022-12-11T23:14:06.889Z,10.80
2022-12-11T23:16:34.166Z,10.10
2022-12-11T23:19:01.400Z,10.50
2022-12-11T23:21:31.720Z,9.20
2022-12-11T23:23:59.478Z,8.50
2022-12-11T23:26:27.816Z,7.70
2022-12-11T23:28:56.464Z,9.50
2022-12-11T23:31:24.827Z,7.40
2022-12-11T23:33:52.993Z,8.60
2022-12-11T23:36:20.412Z,9.20
2022-12-11T23:38:54.067Z,10.80
2022-12-11T23:41:22.481Z,8.80
2022-12-11T23:43:49.609Z,8.50
2022-12-11T23:46:20.036Z,8.20
2022-12-11T23:48:47.185Z,9.00
2022-12-11T23:51:16.949Z,7.40
2022-12-11T23:53:44.115Z,6.80
2022-12-11T23:56:15.600Z,7.20
2022-12-11T23:58:43.011Z,6.80
